Архив погоды в Алтае

Метеограмма Алтай
Суббота, 24 Июня
Время местн. Темп Ветер Видим Явления Облачность нижн/средн/верх Атм. давл. Влжн Точка росы ВНГО R Сост. почвы Tg s
Напр Скр Прв ур.ст ур.м изм
11:00 - +22.1° С 2 - - - - 750 753 -0.4 62% +14.5° - - - - -
08:00 +19.3° В 2 - 20 км - облачно 750 753 -0.2 73% +14.3° 1 км 0 - - -
05:00 +16.5° С 1 - 20 км - облачно 750 753 +0.3 82% +13.5° 1 км - - - -
02:00 +16.2° З 1 - 20 км - облачно 750 753 -0.3 79% +12.6° 1 км - - - -
Пятница, 23 Июня
Время местн. Темп Ветер Видим Явления Облачность нижн/средн/верх Атм. давл. Влжн Точка росы ВНГО R Сост. почвы Tg s
Напр Скр Прв ур.ст ур.м изм
23:00 +18.5° С 1 - 20 км - преимущественно облачно 750 753 +0.5 67% +12.3° более 2.5 км - - - -
20:00 +25.5° Ю,Ю-З 3 - 20 км - облачно с прояснениями 750 753 -0.2 42% +11.6° 1 км 0 - - -
17:00 - +27.1° Ю,Ю-З 4 10 - - - 750 753 -0.5 37% +11.3° - - - - -
14:00 +27.7° Ю 4 10 20 км - переменная облачность 751 753 -0.2 36% +11.3° 1 км - - - -
11:00 - +26.6° Ю 4 - - - - 751 753 -0.5 44% +13.2° - - - - -
08:00 +22.7° Ю 2 - 20 км - переменная облачность 751 754 +0.3 60% +14.5° более 2.5 км 0 - - -
05:00 +18.6° Ю,Ю-З 2 - 20 км - облачно с прояснениями 751 754 +0.4 74% +13.9° более 2.5 км - - - -
02:00 +18.3° Ю,Ю-З 1 - 20 км - переменная облачность 750 753 +0.5 72% +13.2° более 2.5 км - - - -
Четверг, 22 Июня
Время местн. Темп Ветер Видим Явления Облачность нижн/средн/верх Атм. давл. Влжн Точка росы ВНГО R Сост. почвы Tg s
Напр Скр Прв ур.ст ур.м изм
23:00 +21° Ю-В 1 - 20 км - облачно с прояснениями 750 753 +0.8 67% +14.6° 1 км - - - -
20:00 +25.5° В,Ю-В 1 - 20 км - переменная облачность 749 752 +0.5 38% +10.3° более 2.5 км 0 - - -
17:00 - +27.6° С,С-В 1 - - - - 749 751 +0.5 28% +7.4° - - - - -
14:00 +26.5° С-З 2 - 20 км - переменная облачность 748 751 +0.5 31% +8.2° 1.5 км - - - -
11:00 - +24.6° З 2 - - - - 748 751 +0.7 50% +13.5° - - - - -
08:00 +21.6° Ю 2 - 20 км - переменная облачность 747 750 +1 62% +14.1° более 2.5 км 0 Влажная (без луж) +12° -
05:00 +15.9° З 2 - 20 км - облачно 746 749 +0.5 83% +13.1° - - - - -
02:00 +13.7° штиль 0 - 20 км - преимущественно облачно 746 749 +0.6 94% +12.7° более 2.5 км - - - -
Среда, 21 Июня
Время местн. Темп Ветер Видим Явления Облачность нижн/средн/верх Атм. давл. Влжн Точка росы ВНГО R Сост. почвы Tg s
Напр Скр Прв ур.ст ур.м изм
23:00 +17.1° Ю 1 - 20 км - переменная облачность 745 748 +0.5 76% +12.8° 1 км - - - -
20:00 +21° Ю 2 - 20 км - облачно 745 747 +0.8 59% +12.6° 1 км 0 - - -
17:00 - +24.2° Ю 3 - - - - 744 747 -0.3 43% +10.7° - - - - -
14:00 +23° Ю 3 - 20 км - облачно с прояснениями 744 747 0 44% +10.2° 1 км - - - -
11:00 - +20.5° З 3 - - - - 744 747 +0.5 54% +10.9° - - - - -
08:00 +15.4° З,Ю-З 3 - 20 км небо без изменений {ливневые осадки} преимущественно облачно 744 747 +0.5 81% +12.1° 1 км 3 - - -